Fort Lewis, WA

2:16 PM PST on November 27, 2014 (GMT -0800)
Terrace Trailers Mobile home park | Change Station
CLOSE
Current Station
Personal Weather Station
Location: lakewood, WA
Elevation: 262 ft
Nearby Weather Stations
Active Advisory: Areal Flood Watch Active Notice: Record Report

Elev 262 ft 47.13 °N, 122.53 °W | Updated 2 minutes ago

Light Rain
Light Rain
55.8 °F
Feels Like 55.8 °F
N
6.3
Wind Variable Wind from SSE

Today
High -- | Low -- °F
--% Chance of Precip.
Yesterday
High -- | Low -- °F
Precip. -- in
7:30 AM 4:24 PM
Waxing Crescent, 33% visible
Pressure 29.83 in
Visibility 10.0 miles
Clouds Few 1600 ft
Scattered Clouds 2300 ft
Overcast 2900 ft
Dew Point 55 °F
Humidity 98%
Rainfall 0.05 in
Snow Depth Not available.
UV 0 out of 12
Pollen .10 out of 12
Air Quality Not available.
Flu Activity Not available.
METAR KGRF 272158Z AUTO 17011G18KT 10SM -RA FEW016 SCT023 OVC029 13/12 A2982 RMK AO2 RAE2100B2139DZB2100E2139 SLP102 P0001 T01270121 $

More Conditions Fewer Conditions

Pressure 29.83 in
Visibility 10.0 miles
Clouds Few 1600 ft
Scattered Clouds 2300 ft
Overcast 2900 ft
Dew Point 55 °F
Humidity 98%
Rainfall 0.05 in
Snow Depth Not available.
UV 0 out of 12
Pollen .10 out of 12
Air Quality Not available.
Flu Activity Not available.
METAR KGRF 272158Z AUTO 17011G18KT 10SM -RA FEW016 SCT023 OVC029 13/12 A2982 RMK AO2 RAE2100B2139DZB2100E2139 SLP102 P0001 T01270121 $

More Conditions Fewer Conditions

10-Day Weather Forecast

Almanac

Astronomy

Nov. 27, 2014 Rise Set
Actual Time
Civil Twilight
Nautical Twilight
Astronomical Twilight
Moon
Length of Visible Light
Length of Day
Tomorrow will be .
, % of the Moon is Illuminated

Today's Extremes

State Highs State Lows

Community

WunderPhotos

Upload Photos

1,774,124 photos uploaded!

WunderBlogs® & News

Nearby

Air Quality

  Air Quality AQ Index Pollutant
Not available.

Snow Depth

Station Depth Elevation

Earthquake Activity

City Distance Mag. Time & Date
Minimum magnitude displayed is 2.5.

Coastal Water Temperatures

Place Temperature

Nearby Weather Stations